Time;durP1;ratioP1;P1;durP2;ratioP2;P2;SDS_P1;SDS_P2;PMS_P1;PMS_P2;Temp;Humidity;BMP_temperature;BMP_pressure;BME280_temperature;BME280_humidity;BME280_pressure;Samples;Min_cycle;Max_cycle;Signal;HPM_P1;HPM_P2
2022/05/01 00:00:36;;;;;;;;;;;;;;;10.22;70.36;101396.16;4963643;28;19926;-93
2022/05/01 00:03:06;;;;;;;;;;;;;;;10.24;69.62;101396.84;4993433;28;20318;-92
2022/05/01 00:05:39;;;;;;;;;;;;;;;10.36;68.83;101395.75;4988875;28;19926;-94
2022/05/01 00:08:14;;;;;;;;;;;;;;;10.26;69.60;101398.41;4989577;28;19958;-92
2022/05/01 00:11:05;;;;;;;;;;;;;;;10.28;69.83;101393.78;4969132;28;19946;-94
2022/05/01 00:13:32;;;;;;;;;;;;;;;10.26;70.06;101395.72;4985462;28;19929;-94
2022/05/01 00:16:06;;;;;;;;;;;;;;;10.29;70.12;101395.47;4982804;28;19922;-94
2022/05/01 00:18:33;;;;;;;;;;;;;;;10.32;69.72;101389.81;4984293;28;19992;-93
2022/05/01 00:21:04;;;;;;;;;;;;;;;10.27;69.70;101386.66;4968486;28;19914;-92
2022/05/01 00:23:33;;;;;;;;;;;;;;;10.31;69.33;101385.44;4987967;28;19929;-93
2022/05/01 00:26:04;;;;;;;;;;;;;;;10.31;69.27;101392.66;4968843;28;19907;-94
2022/05/01 00:28:33;;;;;;;;;;;;;;;10.30;68.79;101386.44;4980248;28;19914;-93
2022/05/01 00:31:06;;;;;;;;;;;;;;;10.28;68.74;101385.72;4955859;28;19925;-94
2022/05/01 00:36:26;;;;;;;;;;;;;;;10.40;67.83;101390.97;4977402;28;19934;-93
2022/05/01 00:39:02;;;;;;;;;;;;;;;10.34;67.45;101382.44;4984625;28;21167;-94
2022/05/01 00:41:28;;;;;;;;;;;;;;;10.38;67.36;101382.19;4944756;28;19968;-93
2022/05/01 00:44:03;;;;;;;;;;;;;;;10.34;67.25;101389.66;4974148;28;19925;-94
2022/05/01 00:46:32;;;;;;;;;;;;;;;10.26;67.15;101374.22;4961834;28;19918;-93
2022/05/01 00:49:00;;;;;;;;;;;;;;;10.15;67.21;101371.66;4966111;28;19910;-93
2022/05/01 00:51:28;;;;;;;;;;;;;;;10.10;67.35;101376.63;4960294;28;20433;-93
2022/05/01 00:54:11;;;;;;;;;;;;;;;10.18;67.69;101376.75;4989296;28;19922;-91
2022/05/01 00:56:41;;;;;;;;;;;;;;;10.13;67.18;101373.66;4976915;28;19926;-90
2022/05/01 00:59:10;;;;;;;;;;;;;;;10.17;67.33;101371.53;4963138;28;19919;-93
2022/05/01 01:01:38;;;;;;;;;;;;;;;10.15;67.18;101377.03;4942554;28;19947;-93
2022/05/01 01:04:17;;;;;;;;;;;;;;;10.12;66.99;101383.56;4975844;28;19982;-92
2022/05/01 01:06:49;;;;;;;;;;;;;;;10.23;66.78;101377.22;4952435;28;20052;-93
2022/05/01 01:09:21;;;;;;;;;;;;;;;10.23;66.69;101377.22;4979797;28;20046;-92
2022/05/01 01:11:47;;;;;;;;;;;;;;;10.28;66.58;101369.59;4964280;28;20369;-93
2022/05/01 01:14:18;;;;;;;;;;;;;;;10.24;66.35;101370.81;4959365;28;20299;-94
2022/05/01 01:16:45;;;;;;;;;;;;;;;10.26;66.80;101376.91;4977599;28;19922;-94
2022/05/01 01:19:15;;;;;;;;;;;;;;;10.30;66.61;101383.75;4959622;28;19922;-94
2022/05/01 01:21:55;;;;;;;;;;;;;;;10.25;66.15;101380.56;4977448;28;20016;-93
2022/05/01 01:24:27;;;;;;;;;;;;;;;10.29;66.18;101379.34;4988613;28;19922;-95
2022/05/01 01:26:56;;;;;;;;;;;;;;;10.20;66.37;101390.91;4993739;28;20019;-93
2022/05/01 01:32:08;;;;;;;;;;;;;;;10.15;68.23;101394.00;4984957;28;19929;-94
2022/05/01 01:34:39;;;;;;;;;;;;;;;10.11;69.98;101392.63;4941614;28;19918;-93
2022/05/01 01:37:11;;;;;;;;;;;;;;;9.99;71.13;101395.56;4971181;28;19927;-94
2022/05/01 01:39:38;;;;;;;;;;;;;;;9.95;71.60;101386.94;4938705;29;19922;-93
2022/05/01 01:42:13;;;;;;;;;;;;;;;9.92;71.68;101396.09;4956307;28;19929;-93
2022/05/01 01:45:18;;;;;;;;;;;;;;;9.94;71.20;101399.50;4967734;28;19922;-93
2022/05/01 01:48:37;;;;;;;;;;;;;;;9.91;70.10;101399.78;4982019;28;19981;-93
2022/05/01 01:51:47;;;;;;;;;;;;;;;9.94;69.75;101402.19;4980013;28;19945;-93
2022/05/01 01:54:20;;;;;;;;;;;;;;;9.94;69.58;101396.81;4917417;29;19919;-93
2022/05/01 01:56:47;;;;;;;;;;;;;;;9.85;69.75;101397.63;4939849;29;19950;-91
2022/05/01 01:59:14;;;;;;;;;;;;;;;9.87;69.66;101392.97;4970442;28;19922;-93
2022/05/01 02:01:46;;;;;;;;;;;;;;;9.88;69.42;101392.00;4980701;28;19914;-92
2022/05/01 02:07:18;;;;;;;;;;;;;;;9.85;69.18;101386.91;4990366;28;19992;-92
2022/05/01 02:09:47;;;;;;;;;;;;;;;9.96;68.94;101387.78;4947578;29;19926;-92
2022/05/01 02:12:15;;;;;;;;;;;;;;;9.91;69.04;101386.34;4945147;29;19911;-94
2022/05/01 02:14:53;;;;;;;;;;;;;;;9.97;68.83;101390.31;4951382;29;19970;-93
2022/05/01 02:17:27;;;;;;;;;;;;;;;9.93;69.15;101395.13;4940352;29;19922;-94
2022/05/01 02:20:06;;;;;;;;;;;;;;;9.89;69.25;101393.69;4946831;29;20060;-91
2022/05/01 02:22:36;;;;;;;;;;;;;;;9.90;69.28;101395.41;4941189;29;19922;-93
2022/05/01 02:25:09;;;;;;;;;;;;;;;9.82;69.71;101405.13;4938329;29;19923;-94
2022/05/01 02:27:43;;;;;;;;;;;;;;;9.80;70.11;101410.63;4925132;29;19930;-93
2022/05/01 02:30:16;;;;;;;;;;;;;;;9.85;70.04;101411.06;4919894;29;20017;-94
2022/05/01 02:32:50;;;;;;;;;;;;;;;9.84;70.04;101409.38;4934962;29;20018;-93
2022/05/01 02:35:24;;;;;;;;;;;;;;;9.86;69.98;101407.41;4943407;29;19923;-93
2022/05/01 02:37:53;;;;;;;;;;;;;;;9.83;70.18;101402.31;4943958;29;19929;-92
2022/05/01 02:40:42;;;;;;;;;;;;;;;9.87;69.90;101401.03;4929553;28;20039;-93
2022/05/01 02:43:11;;;;;;;;;;;;;;;9.85;69.98;101397.63;4980717;28;19965;-93
2022/05/01 02:45:39;;;;;;;;;;;;;;;9.86;69.90;101404.72;4969978;28;19919;-93
2022/05/01 02:48:10;;;;;;;;;;;;;;;9.88;69.75;101407.25;4985197;28;19922;-92
2022/05/01 02:50:39;;;;;;;;;;;;;;;9.93;69.55;101411.25;4958554;28;19918;-92
2022/05/01 02:53:48;;;;;;;;;;;;;;;9.96;69.27;101414.66;4984284;28;20353;-93
2022/05/01 02:56:17;;;;;;;;;;;;;;;9.88;69.69;101409.94;4968292;28;20430;-94
2022/05/01 02:58:54;;;;;;;;;;;;;;;9.89;69.52;101415.19;5000255;28;19922;-94
2022/05/01 03:01:30;;;;;;;;;;;;;;;9.87;69.60;101401.03;4963039;28;19926;-93
2022/05/01 03:03:57;;;;;;;;;;;;;;;9.89;69.53;101408.97;4976430;28;19949;-92
2022/05/01 03:06:33;;;;;;;;;;;;;;;9.93;69.47;101413.94;4982638;28;20020;-94
2022/05/01 03:09:09;;;;;;;;;;;;;;;9.93;69.50;101410.41;4997933;28;19930;-92
2022/05/01 03:11:40;;;;;;;;;;;;;;;9.94;69.28;101412.94;4961017;28;19918;-94
2022/05/01 03:14:09;;;;;;;;;;;;;;;9.97;69.49;101405.59;4943777;28;19918;-92
2022/05/01 03:16:41;;;;;;;;;;;;;;;9.92;69.69;101408.69;4974762;28;20287;-92
2022/05/01 03:22:16;;;;;;;;;;;;;;;9.92;69.75;101416.75;4989882;28;19989;-93
2022/05/01 03:24:44;;;;;;;;;;;;;;;9.97;69.47;101421.69;4996430;28;19966;-93
2022/05/01 03:27:14;;;;;;;;;;;;;;;10.01;69.61;101423.13;4972593;28;19964;-92
2022/05/01 03:32:36;;;;;;;;;;;;;;;10.06;69.00;101427.09;4962184;28;19980;-92
2022/05/01 03:35:12;;;;;;;;;;;;;;;10.06;68.88;101420.88;4977371;28;19997;-93
2022/05/01 03:37:45;;;;;;;;;;;;;;;10.25;68.58;101430.78;4981100;28;19977;-93
2022/05/01 03:40:17;;;;;;;;;;;;;;;10.27;68.29;101429.66;4980248;28;19930;-93
2022/05/01 03:42:51;;;;;;;;;;;;;;;10.29;68.44;101433.09;4983234;28;19926;-94
2022/05/01 03:45:16;;;;;;;;;;;;;;;10.39;68.07;101435.78;4961290;28;19926;-94
2022/05/01 03:47:47;;;;;;;;;;;;;;;10.34;67.87;101435.34;4966175;28;19922;-93
2022/05/01 03:50:17;;;;;;;;;;;;;;;10.52;67.83;101430.13;4978874;28;19930;-92
2022/05/01 03:52:47;;;;;;;;;;;;;;;10.60;67.27;101435.63;4956343;28;19922;-94
2022/05/01 03:55:19;;;;;;;;;;;;;;;10.64;66.84;101436.22;4972033;28;19976;-94
2022/05/01 03:57:45;;;;;;;;;;;;;;;10.75;66.48;101444.16;4978455;28;19980;-92
2022/05/01 04:00:18;;;;;;;;;;;;;;;10.83;66.28;101456.88;4963378;28;19931;-94
2022/05/01 04:02:44;;;;;;;;;;;;;;;10.90;65.84;101449.91;4969795;28;19930;-94
2022/05/01 04:05:21;;;;;;;;;;;;;;;11.03;65.44;101453.16;4958423;28;19946;-91
2022/05/01 04:07:49;;;;;;;;;;;;;;;10.98;65.58;101456.28;4959266;28;19919;-94
2022/05/01 04:10:14;;;;;;;;;;;;;;;11.14;64.91;101446.75;4947145;28;19915;-94
2022/05/01 04:12:40;;;;;;;;;;;;;;;10.93;65.77;101453.19;4971071;28;19926;-92
2022/05/01 04:15:18;;;;;;;;;;;;;;;11.11;65.59;101452.44;4955591;28;19914;-95
2022/05/01 04:17:53;;;;;;;;;;;;;;;11.11;65.47;101449.75;4972934;28;19949;-94
2022/05/01 04:20:20;;;;;;;;;;;;;;;11.15;65.36;101462.75;4956788;28;19930;-94
2022/05/01 04:22:50;;;;;;;;;;;;;;;11.19;64.99;101456.09;4989671;28;19922;-93
2022/05/01 04:25:26;;;;;;;;;;;;;;;11.26;64.84;101451.00;4961071;28;19926;-92
2022/05/01 04:27:56;;;;;;;;;;;;;;;11.34;65.18;101456.47;4987701;28;19941;-93
2022/05/01 04:30:22;;;;;;;;;;;;;;;11.30;64.83;101449.69;4953824;28;20412;-93
2022/05/01 04:32:59;;;;;;;;;;;;;;;11.36;65.00;101449.09;4989777;28;20287;-94
2022/05/01 04:35:37;;;;;;;;;;;;;;;11.49;63.96;101453.31;4969275;28;19933;-94
2022/05/01 04:38:07;;;;;;;;;;;;;;;11.53;64.16;101450.16;4956662;28;19974;-93
2022/05/01 04:40:38;;;;;;;;;;;;;;;11.64;63.87;101448.31;4944342;28;19922;-94
2022/05/01 04:43:04;;;;;;;;;;;;;;;11.79;63.66;101447.63;4959831;28;19922;-94
2022/05/01 04:45:30;;;;;;;;;;;;;;;12.43;61.41;101442.28;4963498;28;19922;-91
2022/05/01 04:48:02;;;;;;;;;;;;;;;12.98;59.73;101433.16;4984266;28;19922;-91
2022/05/01 04:50:32;;;;;;;;;;;;;;;13.94;56.88;101435.69;4972818;28;20024;-92
2022/05/01 04:53:00;;;;;;;;;;;;;;;14.64;54.74;101431.81;4985894;28;19922;-93
2022/05/01 04:55:25;;;;;;;;;;;;;;;15.23;53.84;101432.41;4949720;28;19984;-93
2022/05/01 04:57:51;;;;;;;;;;;;;;;15.81;52.09;101424.97;4979775;28;19958;-91
2022/05/01 05:00:20;;;;;;;;;;;;;;;16.34;50.39;101417.88;4975047;28;19918;-92
2022/05/01 05:02:49;;;;;;;;;;;;;;;16.74;49.41;101423.13;4981419;28;19910;-93
2022/05/01 05:05:20;;;;;;;;;;;;;;;17.07;48.46;101419.13;4976255;28;19906;-93
2022/05/01 05:07:51;;;;;;;;;;;;;;;17.30;48.04;101415.50;4981302;28;19936;-92
2022/05/01 05:10:18;;;;;;;;;;;;;;;17.68;46.69;101415.41;4992994;28;19953;-94
2022/05/01 05:12:47;;;;;;;;;;;;;;;17.73;46.43;101412.94;4978463;28;19922;-94
2022/05/01 05:15:15;;;;;;;;;;;;;;;17.91;45.64;101413.44;4965363;28;19922;-92
2022/05/01 05:17:41;;;;;;;;;;;;;;;17.64;45.67;101392.34;4974324;28;20355;-92
2022/05/01 05:20:26;;;;;;;;;;;;;;;18.31;44.78;101411.16;4964561;28;19922;-92
2022/05/01 05:22:53;;;;;;;;;;;;;;;18.09;44.71;101402.09;4960204;28;19926;-92
2022/05/01 05:25:22;;;;;;;;;;;;;;;18.48;43.66;101406.28;4947919;28;19919;-92
2022/05/01 05:27:47;;;;;;;;;;;;;;;18.74;43.17;101400.22;4950867;28;19941;-95
2022/05/01 05:30:13;;;;;;;;;;;;;;;18.68;43.34;101403.75;4962930;28;20006;-95
2022/05/01 05:32:49;;;;;;;;;;;;;;;19.04;42.31;101405.50;4946393;28;19954;-91
2022/05/01 05:35:14;;;;;;;;;;;;;;;19.12;41.76;101397.16;4974110;28;19926;-95
2022/05/01 05:37:40;;;;;;;;;;;;;;;19.15;41.63;101395.94;4965527;28;20378;-95
2022/05/01 05:40:12;;;;;;;;;;;;;;;19.14;41.57;101392.38;4976284;28;20084;-93
2022/05/01 05:42:41;;;;;;;;;;;;;;;19.10;41.56;101399.25;4962989;28;19926;-94
2022/05/01 05:45:10;;;;;;;;;;;;;;;19.27;40.98;101390.75;4961508;28;19923;-94
2022/05/01 05:47:36;;;;;;;;;;;;;;;19.30;40.76;101393.09;4980242;28;19926;-94
2022/05/01 05:50:02;;;;;;;;;;;;;;;19.53;40.76;101393.66;4970394;28;19930;-94
2022/05/01 05:52:43;;;;;;;;;;;;;;;;;;;;;
2022/05/01 05:55:09;;;;;;;;;;;;;;;19.64;40.60;101399.56;4983966;28;19969;-93
2022/05/01 05:57:36;;;;;;;;;;;;;;;19.61;40.50;101387.16;4950290;28;19930;-94
2022/05/01 06:00:01;;;;;;;;;;;;;;;19.81;39.84;101390.03;4956125;28;19926;-95
2022/05/01 06:02:27;;;;;;;;;;;;;;;20.03;39.01;101398.91;4964190;28;20002;-94
2022/05/01 06:04:54;;;;;;;;;;;;;;;19.87;39.39;101393.81;4964553;29;19930;-93
2022/05/01 06:07:27;;;;;;;;;;;;;;;19.84;39.38;101400.53;4950749;28;20403;-94
2022/05/01 06:09:52;;;;;;;;;;;;;;;19.97;39.32;101402.44;4979806;28;19926;-92
2022/05/01 06:12:22;;;;;;;;;;;;;;;19.86;39.25;101403.88;4964828;28;20026;-94
2022/05/01 06:14:50;;;;;;;;;;;;;;;19.75;39.58;101404.47;4985948;28;20410;-94
2022/05/01 06:17:18;;;;;;;;;;;;;;;19.54;39.81;101406.22;4987631;28;19932;-90
2022/05/01 06:19:49;;;;;;;;;;;;;;;20.00;39.28;101400.16;4951197;28;20302;-94
2022/05/01 06:22:19;;;;;;;;;;;;;;;20.79;38.29;101406.81;4958959;28;19926;-95
2022/05/01 06:24:45;;;;;;;;;;;;;;;20.87;37.50;101403.84;4968370;28;19930;-93
2022/05/01 06:27:11;;;;;;;;;;;;;;;20.91;37.22;101407.03;4970384;28;19922;-92
2022/05/01 06:29:40;;;;;;;;;;;;;;;21.28;36.76;101407.38;4960133;28;19922;-94
2022/05/01 06:32:11;;;;;;;;;;;;;;;21.66;36.18;101410.25;4967953;28;20017;-91
2022/05/01 06:34:40;;;;;;;;;;;;;;;21.66;35.07;101398.47;4971504;28;19923;-91
2022/05/01 06:37:06;;;;;;;;;;;;;;;21.77;35.63;101411.44;4951646;28;19937;-91
2022/05/01 06:39:41;;;;;;;;;;;;;;;21.62;35.81;101408.16;4955046;28;19927;-92
2022/05/01 06:42:16;;;;;;;;;;;;;;;21.76;35.63;101412.53;4949310;28;19964;-92
2022/05/01 06:44:42;;;;;;;;;;;;;;;21.82;35.83;101408.06;4980930;28;19973;-92
2022/05/01 06:47:09;;;;;;;;;;;;;;;21.84;34.88;101412.25;4977468;28;19922;-90
2022/05/01 06:49:52;;;;;;;;;;;;;;;22.13;34.40;101421.81;4968895;28;19935;-91
2022/05/01 06:52:24;;;;;;;;;;;;;;;22.34;34.08;101414.38;4985342;28;19922;-95
2022/05/01 06:54:53;;;;;;;;;;;;;;;22.55;34.00;101418.66;4978513;28;20033;-91
2022/05/01 06:57:19;;;;;;;;;;;;;;;22.58;34.01;101420.09;4980812;28;19961;-94
2022/05/01 06:59:48;;;;;;;;;;;;;;;22.94;33.15;101417.47;4959256;28;19929;-92
2022/05/01 07:02:16;;;;;;;;;;;;;;;23.24;33.05;101422.28;4958552;28;19926;-93
2022/05/01 07:04:44;;;;;;;;;;;;;;;23.46;32.24;101419.94;4974475;28;20101;-92
2022/05/01 07:09:50;;;;;;;;;;;;;;;23.78;31.81;101434.34;4962735;28;19927;-94
2022/05/01 07:15:18;;;;;;;;;;;;;;;23.09;33.05;101430.88;4963773;29;20024;-90
2022/05/01 07:18:05;;;;;;;;;;;;;;;23.58;32.25;101436.50;4964801;28;20253;-94
2022/05/01 07:20:39;;;;;;;;;;;;;;;23.51;32.12;101436.56;4961754;28;20054;-92
2022/05/01 07:23:06;;;;;;;;;;;;;;;23.87;32.44;101432.16;4968655;28;19922;-95
2022/05/01 07:25:45;;;;;;;;;;;;;;;24.30;31.11;101436.63;4921515;29;19974;-94
2022/05/01 07:28:15;;;;;;;;;;;;;;;23.70;31.54;101436.56;4939145;29;20024;-89
2022/05/01 07:30:50;;;;;;;;;;;;;;;23.61;31.58;101433.28;4939971;28;19961;-93
2022/05/01 07:33:16;;;;;;;;;;;;;;;23.99;31.39;101423.97;4955178;28;19933;-91
2022/05/01 07:35:46;;;;;;;;;;;;;;;23.87;31.25;101426.66;4942454;29;19927;-91
2022/05/01 07:38:19;;;;;;;;;;;;;;;23.24;32.39;101432.41;4961670;28;19923;-92
2022/05/01 07:40:47;;;;;;;;;;;;;;;23.02;32.48;101434.75;4954439;28;20486;-94
2022/05/01 07:43:14;;;;;;;;;;;;;;;22.64;33.51;101424.66;4939957;29;19926;-92
2022/05/01 07:45:45;;;;;;;;;;;;;;;22.12;33.94;101428.38;4954912;28;19923;-88
2022/05/01 07:48:13;;;;;;;;;;;;;;;21.94;34.34;101431.00;4951339;28;20043;-96
2022/05/01 07:51:06;;;;;;;;;;;;;;;21.62;34.83;101424.59;4947695;28;20318;-92
2022/05/01 07:53:34;;;;;;;;;;;;;;;21.27;35.45;101433.88;4957746;28;20053;-94
2022/05/01 07:56:04;;;;;;;;;;;;;;;21.26;35.81;101426.75;4923271;29;19926;-93
2022/05/01 07:58:38;;;;;;;;;;;;;;;20.84;36.45;101420.69;4952709;28;20357;-92
2022/05/01 08:01:10;;;;;;;;;;;;;;;20.50;36.99;101427.13;4951056;28;19986;-92
2022/05/01 08:06:22;;;;;;;;;;;;;;;20.21;37.42;101434.66;4955969;28;19929;-91
2022/05/01 08:08:57;;;;;;;;;;;;;;;19.87;38.27;101437.47;4966062;28;19986;-93
2022/05/01 08:11:25;;;;;;;;;;;;;;;19.86;38.76;101435.81;4956708;28;19954;-88
2022/05/01 08:13:51;;;;;;;;;;;;;;;19.86;38.74;101431.19;4939790;28;20006;-91
2022/05/01 08:16:17;;;;;;;;;;;;;;;19.67;39.17;101435.47;4930192;29;19957;-88
2022/05/01 08:21:47;;;;;;;;;;;;;;;19.27;39.78;101434.38;4964590;28;19953;-90
2022/05/01 08:24:15;;;;;;;;;;;;;;;19.09;39.87;101435.72;4945210;28;19914;-88
2022/05/01 08:26:46;;;;;;;;;;;;;;;19.21;39.71;101425.13;4922781;29;19962;-92
2022/05/01 08:29:16;;;;;;;;;;;;;;;19.15;39.70;101424.06;4938696;29;19977;-87
2022/05/01 08:31:46;;;;;;;;;;;;;;;19.22;39.94;101426.78;4931360;29;20386;-89
2022/05/01 08:34:19;;;;;;;;;;;;;;;19.17;39.88;101426.56;4958764;28;20335;-93
2022/05/01 08:36:45;;;;;;;;;;;;;;;19.40;39.39;101427.13;4938972;29;20023;-92
2022/05/01 08:39:14;;;;;;;;;;;;;;;19.27;39.95;101424.34;4958295;29;19923;-91
2022/05/01 08:41:42;;;;;;;;;;;;;;;19.44;39.63;101426.75;4952355;28;20323;-90
2022/05/01 08:44:09;;;;;;;;;;;;;;;19.48;39.43;101428.88;4958890;28;19969;-90
2022/05/01 08:46:45;;;;;;;;;;;;;;;19.60;39.25;101426.41;4921225;29;20013;-94
2022/05/01 08:49:11;;;;;;;;;;;;;;;19.77;38.62;101427.78;4931975;28;19957;-89
2022/05/01 08:51:49;;;;;;;;;;;;;;;19.11;41.59;101433.66;4946287;28;19973;-93
2022/05/01 08:54:15;;;;;;;;;;;;;;;19.63;40.61;101433.34;4963707;28;19922;-88
2022/05/01 08:56:42;;;;;;;;;;;;;;;19.46;42.27;101430.13;4947901;28;19969;-89
2022/05/01 08:59:11;;;;;;;;;;;;;;;19.69;41.59;101432.56;4971085;28;20432;-89
2022/05/01 09:01:36;;;;;;;;;;;;;;;19.74;41.72;101416.44;4944224;28;20397;-91
2022/05/01 09:04:02;;;;;;;;;;;;;;;20.05;41.38;101428.72;4942875;28;19982;-89
2022/05/01 09:06:33;;;;;;;;;;;;;;;20.16;41.20;101430.88;4958485;28;19926;-92
2022/05/01 09:09:06;;;;;;;;;;;;;;;20.39;40.91;101427.75;4956299;29;19927;-90
2022/05/01 09:14:23;;;;;;;;;;;;;;;20.05;42.11;101421.38;4953629;28;20040;-92
2022/05/01 09:17:07;;;;;;;;;;;;;;;20.17;41.37;101427.09;4944389;29;19946;-89
2022/05/01 09:19:34;;;;;;;;;;;;;;;20.27;41.60;101421.22;4946788;28;20029;-88
2022/05/01 09:22:02;;;;;;;;;;;;;;;20.50;40.21;101409.91;4934020;29;19971;-89
2022/05/01 09:24:27;;;;;;;;;;;;;;;20.62;39.00;101414.56;4957277;28;19914;-88
2022/05/01 09:26:55;;;;;;;;;;;;;;;20.95;38.20;101421.94;4921634;29;19938;-89
2022/05/01 09:29:24;;;;;;;;;;;;;;;20.73;37.95;101415.84;4927875;29;19918;-87
2022/05/01 09:31:55;;;;;;;;;;;;;;;21.23;36.43;101416.22;4965828;28;19912;-89
2022/05/01 09:34:30;;;;;;;;;;;;;;;20.80;37.07;101419.41;4949058;28;19933;-94
2022/05/01 09:37:00;;;;;;;;;;;;;;;20.83;36.99;101420.88;4955380;28;19930;-91
2022/05/01 09:39:45;;;;;;;;;;;;;;;21.32;36.60;101416.00;4958955;28;19927;-90
2022/05/01 09:42:25;;;;;;;;;;;;;;;21.41;36.23;101410.13;4960705;28;19954;-94
2022/05/01 09:45:09;;;;;;;;;;;;;;;21.42;36.41;101419.16;4962633;28;19923;-91
2022/05/01 09:48:00;;;;;;;;;;;;;;;21.18;36.85;101417.91;4939807;28;20335;-91
2022/05/01 09:50:43;;;;;;;;;;;;;;;21.98;35.47;101423.16;4960836;29;19994;-90
2022/05/01 09:53:14;;;;;;;;;;;;;;;23.08;33.47;101431.91;4940579;29;19958;-96
2022/05/01 09:56:01;;;;;;;;;;;;;;;24.30;30.99;101427.53;4960501;29;20375;-93
2022/05/01 09:58:43;;;;;;;;;;;;;;;26.26;28.60;101424.38;4946031;29;19938;-95
2022/05/01 10:01:11;;;;;;;;;;;;;;;27.96;25.89;101423.16;4973876;28;19917;-93
2022/05/01 10:03:46;;;;;;;;;;;;;;;28.73;25.30;101426.72;4957549;28;19919;-94
2022/05/01 10:06:24;;;;;;;;;;;;;;;29.55;24.46;101427.28;4937055;29;19929;-92
2022/05/01 10:08:51;;;;;;;;;;;;;;;30.04;23.64;101421.38;4944299;29;19923;-91
2022/05/01 10:11:18;;;;;;;;;;;;;;;28.94;25.10;101424.09;4969199;28;19927;-92
2022/05/01 10:13:55;;;;;;;;;;;;;;;28.75;25.27;101423.66;4944275;29;19911;-92
2022/05/01 10:16:21;;;;;;;;;;;;;;;28.82;24.94;101427.91;4955904;28;19970;-92
2022/05/01 10:18:50;;;;;;;;;;;;;;;28.72;25.54;101430.56;4934397;29;19915;-89
2022/05/01 10:21:20;;;;;;;;;;;;;;;28.88;25.91;101434.28;4949386;29;19933;-94
2022/05/01 10:23:46;;;;;;;;;;;;;;;29.33;24.68;101429.38;4931912;28;19981;-90
2022/05/01 10:26:24;;;;;;;;;;;;;;;30.86;24.10;101429.84;4943469;29;19982;-86
2022/05/01 10:28:53;;;;;;;;;;;;;;;31.10;23.41;101429.25;4953739;28;19922;-89
2022/05/01 10:34:34;;;;;;;;;;;;;;;30.23;23.66;101412.56;4927544;29;20029;-89
2022/05/01 10:37:07;;;;;;;;;;;;;;;30.08;25.16;101414.16;4932661;29;19923;-87
2022/05/01 10:39:33;;;;;;;;;;;;;;;30.63;23.93;101419.28;4952766;28;19919;-90
2022/05/01 10:42:01;;;;;;;;;;;;;;;29.78;25.34;101408.53;4920492;29;19982;-89
2022/05/01 10:44:36;;;;;;;;;;;;;;;27.58;28.12;101419.38;4937311;29;19929;-86
2022/05/01 10:47:12;;;;;;;;;;;;;;;24.86;33.12;101415.25;4935155;29;19975;-87
2022/05/01 10:49:41;;;;;;;;;;;;;;;23.08;36.21;101428.34;4921067;29;20062;-89
2022/05/01 10:52:15;;;;;;;;;;;;;;;21.25;39.70;101424.22;4952383;29;19926;-85
2022/05/01 10:54:41;;;;;;;;;;;;;;;20.82;41.08;101428.25;4904755;29;19983;-87
2022/05/01 10:57:08;;;;;;;;;;;;;;;20.42;41.02;101438.28;4952412;28;19970;-86
2022/05/01 10:59:34;;;;;;;;;;;;;;;19.59;43.17;101431.00;4939398;29;19926;-87
2022/05/01 11:02:03;;;;;;;;;;;;;;;19.06;44.39;101418.91;4939577;29;20430;-87
2022/05/01 11:04:29;;;;;;;;;;;;;;;18.22;46.29;101420.47;4940309;29;19915;-88
2022/05/01 11:06:54;;;;;;;;;;;;;;;18.06;47.06;101424.25;4937270;29;20015;-88
2022/05/01 11:09:21;;;;;;;;;;;;;;;18.14;46.80;101426.00;4935980;28;19930;-86
2022/05/01 11:11:53;;;;;;;;;;;;;;;17.59;47.59;101427.41;4950525;29;19990;-88
2022/05/01 11:14:58;;;;;;;;;;;;;;;17.47;46.95;101430.59;4939735;29;20030;-86
2022/05/01 11:20:26;;;;;;;;;;;;;;;17.43;46.92;101420.28;4910971;29;19938;-88
2022/05/01 11:23:28;;;;;;;;;;;;;;;17.13;47.70;101424.84;4885552;29;20003;-87
2022/05/01 11:26:07;;;;;;;;;;;;;;;17.29;47.28;101428.25;4843794;29;19927;-89
2022/05/01 11:28:49;;;;;;;;;;;;;;;17.35;46.64;101420.38;4864708;29;20094;-85
2022/05/01 11:31:33;;;;;;;;;;;;;;;17.36;46.44;101422.06;4879821;29;20396;-87
2022/05/01 11:34:19;;;;;;;;;;;;;;;17.42;46.26;101419.44;4910713;29;19972;-85
2022/05/01 11:36:57;;;;;;;;;;;;;;;17.46;45.84;101422.63;4877705;29;19924;-84
2022/05/01 11:39:41;;;;;;;;;;;;;;;16.80;46.69;101422.44;4867331;29;19919;-83
2022/05/01 11:42:26;;;;;;;;;;;;;;;17.31;44.47;101417.19;4959652;29;20018;-83
2022/05/01 11:47:55;;;;;;;;;;;;;;;18.19;42.12;101407.25;4957274;29;20370;-87
2022/05/01 11:50:22;;;;;;;;;;;;;;;18.59;41.44;101396.75;4952837;28;19922;-88
2022/05/01 11:52:51;;;;;;;;;;;;;;;19.09;40.77;101396.75;4944729;29;19927;-84
2022/05/01 11:55:18;;;;;;;;;;;;;;;19.05;40.65;101396.28;4945712;28;19927;-84
2022/05/01 12:03:29;;;;;;;;;;;;;;;19.28;38.97;101389.72;4945930;28;20449;-85
2022/05/01 12:05:55;;;;;;;;;;;;;;;18.56;40.52;101386.22;4938327;28;19919;-85
2022/05/01 12:08:21;;;;;;;;;;;;;;;18.70;41.11;101387.19;4938795;29;19926;-85
2022/05/01 12:10:47;;;;;;;;;;;;;;;18.15;41.79;101384.19;4958450;28;19918;-87
2022/05/01 12:13:16;;;;;;;;;;;;;;;18.04;42.91;101381.97;4935780;29;19976;-86
2022/05/01 12:15:59;;;;;;;;;;;;;;;17.81;44.40;101374.78;4952510;29;19935;-86
2022/05/01 12:18:25;;;;;;;;;;;;;;;18.09;43.53;101365.88;4924870;29;19930;-81
2022/05/01 12:20:54;;;;;;;;;;;;;;;18.60;43.92;101370.34;4952708;29;19919;-87
2022/05/01 12:26:51;;;;;;;;;;;;;;;19.09;41.09;101359.44;4958213;29;20027;-88
2022/05/01 12:51:25;;;;;;;;;;;;;;;18.36;44.62;101331.63;4966050;28;19930;-88
2022/05/01 13:03:45;;;;;;;;;;;;;;;17.49;46.54;101336.13;4959059;28;19925;-89
2022/05/01 13:09:16;;;;;;;;;;;;;;;18.48;44.64;101335.47;4958929;28;19933;-87
2022/05/01 14:03:15;;;;;;;;;;;;;;;18.13;39.05;101294.56;4979565;28;19937;-90
2022/05/01 14:05:50;;;;;;;;;;;;;;;17.82;39.34;101294.06;4954352;28;20008;-89
2022/05/01 14:08:15;;;;;;;;;;;;;;;17.89;39.29;101298.53;4971848;28;19918;-89
2022/05/01 14:10:40;;;;;;;;;;;;;;;17.84;38.67;101292.81;4969439;28;19946;-87
2022/05/01 14:16:14;;;;;;;;;;;;;;;18.38;38.06;101282.41;4997516;28;19929;-90
2022/05/01 14:28:29;;;;;;;;;;;;;;;17.92;37.62;101289.97;4997007;28;20056;-90
2022/05/01 14:34:38;;;;;;;;;;;;;;;18.06;37.89;101279.22;4995482;28;19929;-88
2022/05/01 14:43:14;;;;;;;;;;;;;;;17.82;37.48;101283.19;4992650;28;19922;-89
2022/05/01 14:52:26;;;;;;;;;;;;;;;16.88;39.29;101279.28;4949138;29;19922;-89
2022/05/01 14:57:57;;;;;;;;;;;;;;;16.87;40.76;101266.72;4949157;29;19922;-87
2022/05/01 15:09:26;;;;;;;;;;;;;;;16.28;39.53;101279.38;4880517;29;20014;-87
2022/05/01 15:15:29;;;;;;;;;;;;;;;16.37;38.24;101287.25;4942831;29;20014;-88
2022/05/01 15:17:56;;;;;;;;;;;;;;;16.08;37.09;101293.44;4951200;29;19930;-90
2022/05/01 15:20:28;;;;;;;;;;;;;;;16.10;36.51;101295.97;4943677;28;19961;-88
2022/05/01 15:26:00;;;;;;;;;;;;;;;16.01;35.78;101292.47;4968093;28;19933;-90
2022/05/01 15:28:33;;;;;;;;;;;;;;;15.70;35.82;101290.66;4952811;28;19990;-88
2022/05/01 15:31:16;;;;;;;;;;;;;;;15.75;36.38;101290.94;4959939;29;19914;-89
2022/05/01 15:33:43;;;;;;;;;;;;;;;15.55;36.68;101289.72;4933823;29;19918;-89
2022/05/01 15:36:09;;;;;;;;;;;;;;;15.44;37.08;101290.09;4944217;29;19929;-88
2022/05/01 15:38:50;;;;;;;;;;;;;;;15.44;37.89;101295.53;4958918;28;19923;-90
2022/05/01 15:41:29;;;;;;;;;;;;;;;15.50;38.15;101289.38;4973009;28;19958;-89
2022/05/01 15:43:57;;;;;;;;;;;;;;;15.54;37.66;101293.44;4969680;28;19922;-94
2022/05/01 15:46:22;;;;;;;;;;;;;;;15.64;37.36;101285.94;4961539;29;19926;-92
2022/05/01 15:54:40;;;;;;;;;;;;;;;16.49;35.68;101293.09;4945013;28;19955;-93
2022/05/01 15:57:07;;;;;;;;;;;;;;;16.46;35.75;101294.28;4932528;29;19926;-92
2022/05/01 15:59:35;;;;;;;;;;;;;;;16.31;36.28;101292.56;4969640;28;19941;-93
2022/05/01 16:02:03;;;;;;;;;;;;;;;16.35;36.36;101299.31;4967594;28;19930;-94
2022/05/01 16:04:33;;;;;;;;;;;;;;;16.05;36.49;101296.50;4968304;28;19926;-86
2022/05/01 16:07:14;;;;;;;;;;;;;;;15.94;36.96;101292.34;4980454;28;19922;-93